createdAt,value
2023-04-28T00:03:07.155Z,8.89
2023-04-28T00:06:39.601Z,8.95
2023-04-28T00:09:39.665Z,8.94
2023-04-28T00:12:16.227Z,8.90
2023-04-28T00:14:58.188Z,8.85
2023-04-28T00:17:42.003Z,8.85
2023-04-28T00:20:33.690Z,8.81
2023-04-28T00:23:15.716Z,8.79
2023-04-28T00:26:19.016Z,8.81
2023-04-28T00:29:07.663Z,8.80
2023-04-28T00:32:44.613Z,8.79
2023-04-28T00:35:24.309Z,8.80
2023-04-28T00:38:21.842Z,8.81
2023-04-28T00:41:17.699Z,8.81
2023-04-28T00:43:56.375Z,8.80
2023-04-28T00:46:33.879Z,8.78
2023-04-28T00:49:18.430Z,8.79
2023-04-28T00:52:11.232Z,8.82
2023-04-28T00:55:46.399Z,8.82
2023-04-28T00:58:34.039Z,8.80
2023-04-28T01:01:07.089Z,8.79
2023-04-28T01:03:44.646Z,8.80
2023-04-28T01:06:25.676Z,8.81
2023-04-28T01:09:01.011Z,8.81
2023-04-28T01:11:36.896Z,8.80
2023-04-28T01:14:36.606Z,8.77
2023-04-28T01:17:32.631Z,8.76
2023-04-28T01:20:25.842Z,8.76
2023-04-28T01:28:16.475Z,8.75
2023-04-28T01:31:18.356Z,8.67
2023-04-28T01:34:25.031Z,8.67
2023-04-28T01:37:00.820Z,8.68
2023-04-28T01:39:50.358Z,8.69
2023-04-28T01:42:32.386Z,8.71
2023-04-28T01:45:22.167Z,8.70
2023-04-28T01:48:04.014Z,8.72
2023-04-28T01:50:49.410Z,8.73
2023-04-28T01:53:32.424Z,8.75
2023-04-28T01:56:09.374Z,8.77
2023-04-28T01:58:49.714Z,8.76
2023-04-28T02:01:22.859Z,8.73
2023-04-28T02:04:08.048Z,8.72
2023-04-28T02:07:14.690Z,8.72
2023-04-28T02:09:49.152Z,8.69
2023-04-28T02:12:48.660Z,8.69
2023-04-28T02:15:25.742Z,8.69
2023-04-28T02:18:20.152Z,8.70
2023-04-28T02:21:18.420Z,8.70
2023-04-28T02:24:06.669Z,8.69
2023-04-28T02:27:13.692Z,8.68
2023-04-28T02:29:54.757Z,8.66
2023-04-28T02:32:29.647Z,8.67
2023-04-28T02:35:05.465Z,8.68
2023-04-28T02:38:32.169Z,8.71
2023-04-28T02:41:08.827Z,8.73
2023-04-28T02:43:49.979Z,8.70
2023-04-28T02:47:15.220Z,8.70
2023-04-28T02:50:01.784Z,8.64
2023-04-28T02:53:12.781Z,8.68
2023-04-28T02:56:19.263Z,8.70
2023-04-28T02:58:57.823Z,8.69
2023-04-28T03:01:41.724Z,8.60
2023-04-28T03:04:21.999Z,8.68
2023-04-28T03:07:21.326Z,8.70
2023-04-28T03:09:53.834Z,8.70
2023-04-28T03:12:46.383Z,8.69
2023-04-28T03:15:40.784Z,8.67
2023-04-28T03:18:22.771Z,8.67
2023-04-28T03:21:28.084Z,8.67
2023-04-28T03:24:34.009Z,8.69
2023-04-28T03:27:15.807Z,8.71
2023-04-28T03:34:52.150Z,8.74
2023-04-28T03:42:34.798Z,8.75
2023-04-28T03:45:19.631Z,8.74
2023-04-28T03:48:01.664Z,8.76
2023-04-28T03:51:17.402Z,8.80
2023-04-28T03:53:53.746Z,8.81
2023-04-28T03:56:35.635Z,8.83
2023-04-28T03:59:30.968Z,8.87
2023-04-28T04:02:22.720Z,8.89
2023-04-28T04:05:08.396Z,8.91
2023-04-28T04:08:12.623Z,8.94
2023-04-28T04:47:19.831Z,9.68
2023-04-28T04:54:41.022Z,9.74
2023-04-28T04:58:21.969Z,9.76
2023-04-28T05:11:37.128Z,9.72
2023-04-28T05:19:23.425Z,9.73
2023-04-28T05:25:58.883Z,9.87
2023-04-28T05:29:51.083Z,9.87
2023-04-28T05:32:46.538Z,9.95
2023-04-28T05:35:31.877Z,10.00
2023-04-28T05:38:49.685Z,10.06
2023-04-28T05:41:31.610Z,10.13
2023-04-28T05:44:16.736Z,10.16
2023-04-28T05:47:29.076Z,10.22
2023-04-28T05:54:38.049Z,10.29
2023-04-28T05:58:03.102Z,10.32
2023-04-28T06:01:07.150Z,10.32
2023-04-28T06:04:32.889Z,10.27
2023-04-28T06:07:17.537Z,10.36
2023-04-28T06:10:14.950Z,10.41
2023-04-28T06:17:15.326Z,10.56
2023-04-28T06:20:55.320Z,10.59
2023-04-28T06:23:43.797Z,10.63
2023-04-28T06:26:28.104Z,10.63
2023-04-28T06:29:26.278Z,10.68
2023-04-28T06:32:15.669Z,10.76
2023-04-28T06:35:49.342Z,10.74
2023-04-28T06:38:49.802Z,10.75
2023-04-28T06:41:37.811Z,10.78
2023-04-28T06:48:52.941Z,10.73
2023-04-28T06:51:38.463Z,10.75
2023-04-28T06:54:11.591Z,10.72
2023-04-28T06:56:59.251Z,10.72
2023-04-28T07:00:01.383Z,10.73
2023-04-28T07:03:20.108Z,10.84
2023-04-28T07:06:20.835Z,10.96
2023-04-28T07:09:33.536Z,11.06
2023-04-28T07:12:43.933Z,11.13
2023-04-28T07:15:37.485Z,11.09
2023-04-28T07:18:34.374Z,11.23
2023-04-28T07:21:52.728Z,11.35
2023-04-28T07:32:18.799Z,11.46
2023-04-28T07:39:31.339Z,11.47
2023-04-28T07:50:45.761Z,11.58
2023-04-28T07:59:21.834Z,11.82
2023-04-28T08:01:50.408Z,11.84
2023-04-28T08:04:21.771Z,11.87
2023-04-28T08:06:58.708Z,11.99
2023-04-28T08:09:30.719Z,12.08
2023-04-28T08:12:00.470Z,12.16
2023-04-28T08:14:28.113Z,12.33
2023-04-28T08:16:55.625Z,12.47
2023-04-28T08:19:24.107Z,12.54
2023-04-28T08:22:13.275Z,12.63
2023-04-28T08:25:07.889Z,12.77
2023-04-28T08:28:10.348Z,12.87
2023-04-28T08:35:45.330Z,12.81
2023-04-28T08:38:47.553Z,12.80
2023-04-28T08:41:44.987Z,12.87
2023-04-28T08:44:39.365Z,12.89
2023-04-28T08:47:22.629Z,12.91
2023-04-28T08:49:53.021Z,12.88
2023-04-28T08:52:33.121Z,12.82
2023-04-28T08:56:13.572Z,12.82
2023-04-28T08:59:37.505Z,12.81
2023-04-28T09:05:54.181Z,12.99
2023-04-28T09:08:28.933Z,13.07
2023-04-28T09:11:45.790Z,13.05
2023-04-28T09:14:31.448Z,13.05
2023-04-28T09:17:34.184Z,13.05
2023-04-28T09:20:35.858Z,13.07
2023-04-28T09:31:03.820Z,13.05
2023-04-28T09:34:29.455Z,12.97
2023-04-28T09:37:20.837Z,12.94
2023-04-28T09:40:26.913Z,12.96
2023-04-28T09:47:38.807Z,13.18
2023-04-28T10:03:02.255Z,13.27
2023-04-28T10:06:04.206Z,13.29
2023-04-28T10:08:52.853Z,13.27
2023-04-28T10:11:51.272Z,13.37
2023-04-28T10:14:29.827Z,13.51
2023-04-28T10:17:58.386Z,13.58
2023-04-28T10:20:38.335Z,13.61
2023-04-28T10:37:18.348Z,13.78
2023-04-28T10:44:42.241Z,13.76
2023-04-28T10:48:06.502Z,13.80
2023-04-28T10:56:08.951Z,13.99
2023-04-28T10:59:25.133Z,14.10
2023-04-28T11:02:25.617Z,14.16
2023-04-28T11:05:39.743Z,14.16
2023-04-28T11:08:26.810Z,14.19
2023-04-28T11:11:25.328Z,14.24
2023-04-28T11:13:56.708Z,14.28
2023-04-28T11:16:25.128Z,14.20
2023-04-28T11:18:55.754Z,14.06
2023-04-28T11:21:25.597Z,13.95
2023-04-28T11:23:53.423Z,13.91
2023-04-28T11:26:23.208Z,13.91
2023-04-28T11:29:00.509Z,13.94
2023-04-28T11:31:29.161Z,13.97
2023-04-28T11:34:08.000Z,13.98
2023-04-28T11:36:38.834Z,14.02
2023-04-28T11:39:10.476Z,14.06
2023-04-28T11:41:39.041Z,14.05
2023-04-28T11:44:19.419Z,14.00
2023-04-28T11:46:59.949Z,13.95
2023-04-28T11:49:47.734Z,13.98
2023-04-28T11:52:32.600Z,14.00
2023-04-28T11:55:07.848Z,14.03
2023-04-28T11:58:31.901Z,14.05
2023-04-28T12:05:12.037Z,13.94
2023-04-28T12:08:19.726Z,14.02
2023-04-28T12:11:36.099Z,14.04
2023-04-28T12:14:51.964Z,14.21
2023-04-28T12:17:39.233Z,14.28
2023-04-28T12:20:44.234Z,14.28
2023-04-28T12:23:57.062Z,14.20
2023-04-28T12:26:54.613Z,14.10
2023-04-28T12:30:00.467Z,14.10
2023-04-28T12:33:16.661Z,14.23
2023-04-28T12:36:32.174Z,14.48
2023-04-28T12:39:26.933Z,14.67
2023-04-28T12:42:25.560Z,14.52
2023-04-28T12:45:55.042Z,14.44
2023-04-28T12:48:35.880Z,14.27
2023-04-28T12:52:10.383Z,14.23
2023-04-28T12:59:52.836Z,14.54
2023-04-28T13:02:41.695Z,14.42
2023-04-28T13:05:24.697Z,14.32
2023-04-28T13:08:06.901Z,14.22
2023-04-28T13:12:03.281Z,14.18
2023-04-28T13:14:41.055Z,14.38
2023-04-28T13:18:22.855Z,14.59
2023-04-28T13:21:09.969Z,14.88
2023-04-28T13:23:50.902Z,14.88
2023-04-28T13:27:37.415Z,14.84
2023-04-28T13:30:45.394Z,14.94
2023-04-28T13:34:17.285Z,15.08
2023-04-28T13:37:17.860Z,15.24
2023-04-28T13:40:21.412Z,15.17
2023-04-28T13:43:42.872Z,15.16
2023-04-28T13:46:39.139Z,15.19
2023-04-28T13:49:53.227Z,15.39
2023-04-28T13:52:45.336Z,15.55
2023-04-28T13:55:56.148Z,15.51
2023-04-28T13:59:46.403Z,15.45
2023-04-28T14:04:00.476Z,15.49
2023-04-28T14:06:47.686Z,15.42
2023-04-28T14:10:10.948Z,15.38
2023-04-28T14:17:10.452Z,15.34
2023-04-28T14:21:59.409Z,15.51
2023-04-28T14:25:29.336Z,15.67
2023-04-28T14:28:25.440Z,15.65
2023-04-28T14:32:14.292Z,15.60
2023-04-28T14:35:16.932Z,15.52
2023-04-28T14:47:59.557Z,15.75
2023-04-28T14:51:41.564Z,15.77
2023-04-28T14:59:27.099Z,15.71
2023-04-28T15:03:12.964Z,15.62
2023-04-28T15:07:03.779Z,15.47
2023-04-28T15:14:57.399Z,15.09
2023-04-28T15:51:20.763Z,14.33
2023-04-28T17:20:12.909Z,13.17
2023-04-28T17:36:45.881Z,12.90
2023-04-28T17:43:56.200Z,12.72
2023-04-28T17:48:01.880Z,12.67
2023-04-28T17:51:43.453Z,12.63
2023-04-28T17:54:56.796Z,12.58
2023-04-28T18:06:58.336Z,12.43
2023-04-28T18:14:03.390Z,12.32
2023-04-28T18:22:21.179Z,12.17
2023-04-28T18:25:20.221Z,12.10
2023-04-28T18:28:20.514Z,12.04
2023-04-28T18:41:06.136Z,11.85
2023-04-28T18:44:20.755Z,11.77
2023-04-28T18:47:03.279Z,11.76
2023-04-28T18:50:27.929Z,11.74
2023-04-28T18:54:34.398Z,11.73
2023-04-28T18:58:31.602Z,11.66
2023-04-28T19:01:24.803Z,11.60
2023-04-28T19:04:21.843Z,11.56
2023-04-28T19:07:21.120Z,11.53
2023-04-28T19:09:59.091Z,11.52
2023-04-28T19:13:52.527Z,11.50
2023-04-28T19:16:52.824Z,11.49
2023-04-28T19:20:07.934Z,11.43
2023-04-28T19:24:14.233Z,11.39
2023-04-28T19:36:00.030Z,11.18
2023-04-28T19:39:48.310Z,11.13
2023-04-28T19:43:55.755Z,11.07
2023-04-28T19:58:31.170Z,10.87
2023-04-28T20:01:26.643Z,10.81
2023-04-28T20:04:26.737Z,10.78
2023-04-28T20:07:28.004Z,10.78
2023-04-28T20:10:40.748Z,10.75
2023-04-28T20:13:26.652Z,10.72
2023-04-28T20:16:01.715Z,10.69
2023-04-28T20:19:22.589Z,10.66
2023-04-28T20:22:08.827Z,10.60
2023-04-28T20:25:01.096Z,10.54
2023-04-28T20:37:17.474Z,10.31
2023-04-28T20:40:57.404Z,10.26
2023-04-28T20:43:55.454Z,10.23
2023-04-28T20:48:04.353Z,10.18
2023-04-28T20:51:25.434Z,10.15
2023-04-28T20:55:09.373Z,10.11
2023-04-28T20:58:10.248Z,10.08
2023-04-28T21:01:37.786Z,10.05
2023-04-28T21:04:45.175Z,10.02
2023-04-28T21:07:43.274Z,9.96
2023-04-28T21:10:21.064Z,9.94
2023-04-28T21:17:19.885Z,9.89
2023-04-28T21:20:17.295Z,9.84
2023-04-28T21:23:14.914Z,9.83
2023-04-28T21:26:51.216Z,9.83
2023-04-28T21:29:40.905Z,9.79
2023-04-28T21:32:53.904Z,9.76
2023-04-28T21:36:38.302Z,9.74
2023-04-28T21:39:23.898Z,9.71
2023-04-28T21:42:35.736Z,9.68
2023-04-28T21:45:55.587Z,9.67
2023-04-28T21:48:57.757Z,9.64
2023-04-28T21:51:50.620Z,9.61
2023-04-28T21:58:39.605Z,9.53
2023-04-28T22:01:18.656Z,9.48
2023-04-28T22:03:51.923Z,9.50
2023-04-28T22:07:02.923Z,9.50
2023-04-28T22:10:38.960Z,9.51
2023-04-28T22:13:17.931Z,9.45
2023-04-28T22:16:09.692Z,9.39
2023-04-28T22:18:51.136Z,9.36
2023-04-28T22:22:22.705Z,9.36
2023-04-28T22:24:55.631Z,9.37
2023-04-28T22:27:36.098Z,9.34
2023-04-28T22:30:33.698Z,9.29
2023-04-28T22:33:27.811Z,9.24
2023-04-28T22:36:48.207Z,9.23
2023-04-28T22:40:09.770Z,9.19
2023-04-28T22:42:40.899Z,9.15
2023-04-28T22:45:42.219Z,9.11
2023-04-28T22:48:42.847Z,9.08
2023-04-28T22:51:17.213Z,9.07
2023-04-28T22:57:40.086Z,9.05
2023-04-28T23:00:16.773Z,9.02
2023-04-28T23:03:20.767Z,9.00
2023-04-28T23:06:23.059Z,8.97
2023-04-28T23:09:00.405Z,8.94
2023-04-28T23:12:32.296Z,8.90
2023-04-28T23:15:24.122Z,8.87
2023-04-28T23:18:21.399Z,8.83
2023-04-28T23:21:27.051Z,8.81
2023-04-28T23:28:20.051Z,8.70
2023-04-28T23:31:27.510Z,8.68
2023-04-28T23:34:23.678Z,8.67
2023-04-28T23:37:01.170Z,8.66
2023-04-28T23:39:50.031Z,8.66
2023-04-28T23:42:27.619Z,8.66
2023-04-28T23:45:24.524Z,8.67
2023-04-28T23:48:20.337Z,8.67
2023-04-28T23:51:02.601Z,8.66
2023-04-28T23:54:02.092Z,8.62
2023-04-28T23:57:09.062Z,8.58
2023-04-28T23:59:45.034Z,8.54
